sensor_id;sensor_type;location;lat;lon;timestamp;pressure;altitude;pressure_sealevel;temperature;humidity
64025;BME280;50266;57.446;26.936;2024-01-27T00:00:06;98808.03;;;-2.66;100.0
64025;BME280;50266;57.446;26.936;2024-01-27T00:01:05;98811.55;;;-2.74;100.0
64025;BME280;50266;57.446;26.936;2024-01-27T00:02:05;98808.62;;;-2.71;100.0
64025;BME280;50266;57.446;26.936;2024-01-27T00:03:05;98805.74;;;-2.73;100.0
64025;BME280;50266;57.446;26.936;2024-01-27T00:04:05;98807.62;;;-2.72;100.0
64025;BME280;50266;57.446;26.936;2024-01-27T00:05:06;98806.42;;;-2.7;100.0
64025;BME280;50266;57.446;26.936;2024-01-27T00:06:05;98809.67;;;-2.72;100.0
64025;BME280;50266;57.446;26.936;2024-01-27T00:07:05;98806.16;;;-2.82;100.0
64025;BME280;50266;57.446;26.936;2024-01-27T00:08:06;98810.27;;;-2.77;100.0
64025;BME280;50266;57.446;26.936;2024-01-27T00:09:05;98814.25;;;-2.71;100.0
64025;BME280;50266;57.446;26.936;2024-01-27T00:10:06;98815.64;;;-2.72;100.0
64025;BME280;50266;57.446;26.936;2024-01-27T00:11:06;98812.98;;;-2.7;100.0
64025;BME280;50266;57.446;26.936;2024-01-27T00:12:06;98816.92;;;-2.72;100.0
64025;BME280;50266;57.446;26.936;2024-01-27T00:13:06;98810.7;;;-2.72;100.0
64025;BME280;50266;57.446;26.936;2024-01-27T00:14:06;98813.14;;;-2.72;100.0
64025;BME280;50266;57.446;26.936;2024-01-27T00:15:06;98809.25;;;-2.7;100.0
64025;BME280;50266;57.446;26.936;2024-01-27T00:16:06;98810.34;;;-2.71;100.0
64025;BME280;50266;57.446;26.936;2024-01-27T00:17:06;98812.64;;;-2.71;100.0
64025;BME280;50266;57.446;26.936;2024-01-27T00:18:06;98812.86;;;-2.72;100.0
64025;BME280;50266;57.446;26.936;2024-01-27T00:19:06;98811.97;;;-2.73;100.0
64025;BME280;50266;57.446;26.936;2024-01-27T00:20:06;98812.8;;;-2.78;100.0
64025;BME280;50266;57.446;26.936;2024-01-27T00:21:06;98816.06;;;-2.79;100.0
64025;BME280;50266;57.446;26.936;2024-01-27T00:22:06;98817.45;;;-2.73;100.0
64025;BME280;50266;57.446;26.936;2024-01-27T00:23:06;98816.48;;;-2.71;100.0
64025;BME280;50266;57.446;26.936;2024-01-27T00:24:06;98819.7;;;-2.7;100.0
64025;BME280;50266;57.446;26.936;2024-01-27T00:25:06;98821.58;;;-2.71;100.0
64025;BME280;50266;57.446;26.936;2024-01-27T00:26:06;98820.88;;;-2.69;100.0
64025;BME280;50266;57.446;26.936;2024-01-27T00:27:06;98821.19;;;-2.68;100.0
64025;BME280;50266;57.446;26.936;2024-01-27T00:28:06;98822.31;;;-2.67;100.0
64025;BME280;50266;57.446;26.936;2024-01-27T00:29:06;98823.41;;;-2.68;100.0
64025;BME280;50266;57.446;26.936;2024-01-27T00:30:06;98827.38;;;-2.69;100.0
64025;BME280;50266;57.446;26.936;2024-01-27T00:31:06;98818.33;;;-2.69;100.0
64025;BME280;50266;57.446;26.936;2024-01-27T00:32:06;98819.98;;;-2.73;100.0
64025;BME280;50266;57.446;26.936;2024-01-27T00:33:06;98821.08;;;-2.78;100.0
64025;BME280;50266;57.446;26.936;2024-01-27T00:34:06;98818.72;;;-2.74;100.0
64025;BME280;50266;57.446;26.936;2024-01-27T00:35:07;98819.8;;;-2.72;100.0
64025;BME280;50266;57.446;26.936;2024-01-27T00:36:06;98819.06;;;-2.7;100.0
64025;BME280;50266;57.446;26.936;2024-01-27T00:37:06;98822.98;;;-2.71;100.0
64025;BME280;50266;57.446;26.936;2024-01-27T00:38:06;98819.58;;;-2.72;100.0
64025;BME280;50266;57.446;26.936;2024-01-27T00:39:06;98821.64;;;-2.72;100.0
64025;BME280;50266;57.446;26.936;2024-01-27T00:40:09;98824.27;;;-2.7;100.0
64025;BME280;50266;57.446;26.936;2024-01-27T00:41:06;98821.77;;;-2.7;100.0
64025;BME280;50266;57.446;26.936;2024-01-27T00:42:06;98827.52;;;-2.67;100.0
64025;BME280;50266;57.446;26.936;2024-01-27T00:43:06;98826.89;;;-2.66;100.0
64025;BME280;50266;57.446;26.936;2024-01-27T00:44:06;98826.83;;;-2.66;100.0
64025;BME280;50266;57.446;26.936;2024-01-27T00:45:06;98826.95;;;-2.72;100.0
64025;BME280;50266;57.446;26.936;2024-01-27T00:46:06;98831.12;;;-2.72;100.0
64025;BME280;50266;57.446;26.936;2024-01-27T00:47:06;98826.05;;;-2.7;100.0
64025;BME280;50266;57.446;26.936;2024-01-27T00:48:06;98825.92;;;-2.69;100.0
64025;BME280;50266;57.446;26.936;2024-01-27T00:49:06;98827.95;;;-2.71;100.0
64025;BME280;50266;57.446;26.936;2024-01-27T00:50:06;98827.97;;;-2.79;100.0
64025;BME280;50266;57.446;26.936;2024-01-27T00:51:06;98827.27;;;-2.74;100.0
64025;BME280;50266;57.446;26.936;2024-01-27T00:52:06;98824.2;;;-2.72;100.0
64025;BME280;50266;57.446;26.936;2024-01-27T00:53:06;98823.09;;;-2.72;100.0
64025;BME280;50266;57.446;26.936;2024-01-27T00:54:06;98826.56;;;-2.69;100.0
64025;BME280;50266;57.446;26.936;2024-01-27T00:55:06;98825.05;;;-2.68;100.0
64025;BME280;50266;57.446;26.936;2024-01-27T00:56:06;98824.09;;;-2.67;100.0
64025;BME280;50266;57.446;26.936;2024-01-27T00:57:06;98828.98;;;-2.73;100.0
64025;BME280;50266;57.446;26.936;2024-01-27T00:58:06;98828.14;;;-2.72;100.0
64025;BME280;50266;57.446;26.936;2024-01-27T00:59:06;98829.02;;;-2.69;100.0
64025;BME280;50266;57.446;26.936;2024-01-27T01:00:07;98829.87;;;-2.68;100.0
64025;BME280;50266;57.446;26.936;2024-01-27T01:01:06;98827.41;;;-2.71;100.0
64025;BME280;50266;57.446;26.936;2024-01-27T01:02:06;98827.09;;;-2.73;100.0
64025;BME280;50266;57.446;26.936;2024-01-27T01:03:06;98830.44;;;-2.75;100.0
64025;BME280;50266;57.446;26.936;2024-01-27T01:04:07;98830.7;;;-2.69;100.0
64025;BME280;50266;57.446;26.936;2024-01-27T01:05:07;98833.42;;;-2.71;100.0
64025;BME280;50266;57.446;26.936;2024-01-27T01:06:06;98830.8;;;-2.69;100.0
64025;BME280;50266;57.446;26.936;2024-01-27T01:07:06;98835.74;;;-2.67;100.0
64025;BME280;50266;57.446;26.936;2024-01-27T01:08:06;98837.19;;;-2.66;100.0
64025;BME280;50266;57.446;26.936;2024-01-27T01:09:06;98838.09;;;-2.68;100.0
64025;BME280;50266;57.446;26.936;2024-01-27T01:10:07;98838.73;;;-2.78;100.0
64025;BME280;50266;57.446;26.936;2024-01-27T01:11:06;98842.45;;;-2.77;100.0
64025;BME280;50266;57.446;26.936;2024-01-27T01:12:06;98845.56;;;-2.73;100.0
64025;BME280;50266;57.446;26.936;2024-01-27T01:13:07;98841.05;;;-2.75;100.0
64025;BME280;50266;57.446;26.936;2024-01-27T01:14:07;98844.83;;;-2.79;100.0
64025;BME280;50266;57.446;26.936;2024-01-27T01:15:07;98843.37;;;-2.79;100.0
64025;BME280;50266;57.446;26.936;2024-01-27T01:16:07;98837.75;;;-2.77;100.0
64025;BME280;50266;57.446;26.936;2024-01-27T01:17:07;98839.3;;;-2.74;100.0
64025;BME280;50266;57.446;26.936;2024-01-27T01:18:07;98836.54;;;-2.74;100.0
64025;BME280;50266;57.446;26.936;2024-01-27T01:19:07;98836.97;;;-2.74;100.0
64025;BME280;50266;57.446;26.936;2024-01-27T01:20:07;98835.88;;;-2.73;100.0
64025;BME280;50266;57.446;26.936;2024-01-27T01:21:07;98833.7;;;-2.73;100.0
64025;BME280;50266;57.446;26.936;2024-01-27T01:22:07;98832.2;;;-2.72;100.0
64025;BME280;50266;57.446;26.936;2024-01-27T01:23:07;98834.09;;;-2.68;100.0
64025;BME280;50266;57.446;26.936;2024-01-27T01:24:07;98833.47;;;-2.67;100.0
64025;BME280;50266;57.446;26.936;2024-01-27T01:25:07;98833.02;;;-2.68;100.0
64025;BME280;50266;57.446;26.936;2024-01-27T01:26:07;98831.73;;;-2.7;100.0
64025;BME280;50266;57.446;26.936;2024-01-27T01:27:07;98827.61;;;-2.69;100.0
64025;BME280;50266;57.446;26.936;2024-01-27T01:28:07;98825.92;;;-2.76;100.0
64025;BME280;50266;57.446;26.936;2024-01-27T01:29:07;98831.46;;;-2.75;100.0
64025;BME280;50266;57.446;26.936;2024-01-27T01:30:08;98835.09;;;-2.72;100.0
64025;BME280;50266;57.446;26.936;2024-01-27T01:31:07;98835.36;;;-2.7;100.0
64025;BME280;50266;57.446;26.936;2024-01-27T01:32:07;98836.71;;;-2.69;100.0
64025;BME280;50266;57.446;26.936;2024-01-27T01:33:07;98837.12;;;-2.69;100.0
64025;BME280;50266;57.446;26.936;2024-01-27T01:34:07;98834.05;;;-2.69;100.0
64025;BME280;50266;57.446;26.936;2024-01-27T01:35:08;98836.11;;;-2.7;100.0
64025;BME280;50266;57.446;26.936;2024-01-27T01:36:07;98830.72;;;-2.78;100.0
64025;BME280;50266;57.446;26.936;2024-01-27T01:37:07;98832.67;;;-2.76;100.0
64025;BME280;50266;57.446;26.936;2024-01-27T01:38:07;98832.84;;;-2.81;100.0
64025;BME280;50266;57.446;26.936;2024-01-27T01:39:09;98834.39;;;-2.78;100.0
64025;BME280;50266;57.446;26.936;2024-01-27T01:40:08;98831.44;;;-2.84;100.0
64025;BME280;50266;57.446;26.936;2024-01-27T01:41:07;98834.47;;;-2.83;100.0
64025;BME280;50266;57.446;26.936;2024-01-27T01:42:07;98832.46;;;-2.88;100.0
64025;BME280;50266;57.446;26.936;2024-01-27T01:43:10;98835.64;;;-2.9;100.0
64025;BME280;50266;57.446;26.936;2024-01-27T01:44:07;98830.8;;;-2.97;100.0
64025;BME280;50266;57.446;26.936;2024-01-27T01:45:09;98832.67;;;-3.01;100.0
64025;BME280;50266;57.446;26.936;2024-01-27T01:46:08;98835.34;;;-3.07;100.0
64025;BME280;50266;57.446;26.936;2024-01-27T01:47:08;98832.04;;;-3.09;100.0
64025;BME280;50266;57.446;26.936;2024-01-27T01:48:08;98833.09;;;-3.06;100.0
64025;BME280;50266;57.446;26.936;2024-01-27T01:49:08;98835.83;;;-3.04;100.0
64025;BME280;50266;57.446;26.936;2024-01-27T01:50:08;98835.95;;;-3.03;100.0
64025;BME280;50266;57.446;26.936;2024-01-27T01:51:08;98835.2;;;-3.0;100.0
64025;BME280;50266;57.446;26.936;2024-01-27T01:52:08;98838.53;;;-3.02;100.0
64025;BME280;50266;57.446;26.936;2024-01-27T01:53:08;98835.8;;;-3.01;100.0
64025;BME280;50266;57.446;26.936;2024-01-27T01:54:08;98837.73;;;-3.0;100.0
64025;BME280;50266;57.446;26.936;2024-01-27T01:55:08;98834.41;;;-2.99;100.0
64025;BME280;50266;57.446;26.936;2024-01-27T01:56:08;98833.95;;;-2.98;100.0
64025;BME280;50266;57.446;26.936;2024-01-27T01:57:08;98829.09;;;-2.96;100.0
64025;BME280;50266;57.446;26.936;2024-01-27T01:58:08;98829.11;;;-2.94;100.0
64025;BME280;50266;57.446;26.936;2024-01-27T01:59:08;98830.77;;;-2.93;100.0
64025;BME280;50266;57.446;26.936;2024-01-27T02:00:08;98830.12;;;-2.94;100.0
64025;BME280;50266;57.446;26.936;2024-01-27T02:01:08;98825.38;;;-2.97;100.0
64025;BME280;50266;57.446;26.936;2024-01-27T02:02:08;98830.41;;;-2.99;100.0
64025;BME280;50266;57.446;26.936;2024-01-27T02:03:11;98830.75;;;-3.0;100.0
64025;BME280;50266;57.446;26.936;2024-01-27T02:04:08;98829.7;;;-2.99;100.0
64025;BME280;50266;57.446;26.936;2024-01-27T02:05:08;98833.86;;;-2.96;100.0
64025;BME280;50266;57.446;26.936;2024-01-27T02:06:08;98835.66;;;-2.99;100.0
64025;BME280;50266;57.446;26.936;2024-01-27T02:07:08;98831.38;;;-3.01;100.0
64025;BME280;50266;57.446;26.936;2024-01-27T02:08:08;98833.45;;;-3.02;100.0
64025;BME280;50266;57.446;26.936;2024-01-27T02:09:08;98828.07;;;-3.04;100.0
64025;BME280;50266;57.446;26.936;2024-01-27T02:10:12;98834.68;;;-3.01;100.0
64025;BME280;50266;57.446;26.936;2024-01-27T02:11:09;98834.83;;;-3.05;100.0
64025;BME280;50266;57.446;26.936;2024-01-27T02:12:09;98834.73;;;-3.06;100.0
64025;BME280;50266;57.446;26.936;2024-01-27T02:13:21;98835.86;;;-3.06;100.0
64025;BME280;50266;57.446;26.936;2024-01-27T02:14:13;98833.27;;;-3.08;100.0
64025;BME280;50266;57.446;26.936;2024-01-27T02:15:13;98834.78;;;-3.09;100.0
64025;BME280;50266;57.446;26.936;2024-01-27T02:16:13;98834.27;;;-3.05;100.0
64025;BME280;50266;57.446;26.936;2024-01-27T02:17:13;98835.92;;;-3.09;100.0
64025;BME280;50266;57.446;26.936;2024-01-27T02:18:13;98833.8;;;-3.08;100.0
64025;BME280;50266;57.446;26.936;2024-01-27T02:19:13;98835.46;;;-3.07;100.0
64025;BME280;50266;57.446;26.936;2024-01-27T02:20:13;98834.21;;;-3.1;100.0
64025;BME280;50266;57.446;26.936;2024-01-27T02:21:13;98828.95;;;-3.11;100.0
64025;BME280;50266;57.446;26.936;2024-01-27T02:22:13;98834.88;;;-3.06;100.0
64025;BME280;50266;57.446;26.936;2024-01-27T02:23:13;98835.71;;;-3.06;100.0
64025;BME280;50266;57.446;26.936;2024-01-27T02:24:13;98835.36;;;-3.11;100.0
64025;BME280;50266;57.446;26.936;2024-01-27T02:25:13;98832.16;;;-3.13;100.0
64025;BME280;50266;57.446;26.936;2024-01-27T02:26:13;98835.48;;;-3.14;100.0
64025;BME280;50266;57.446;26.936;2024-01-27T02:27:13;98833.56;;;-3.11;100.0
64025;BME280;50266;57.446;26.936;2024-01-27T02:28:13;98838.39;;;-3.1;100.0
64025;BME280;50266;57.446;26.936;2024-01-27T02:29:13;98829.27;;;-3.13;100.0
64025;BME280;50266;57.446;26.936;2024-01-27T02:30:13;98835.88;;;-3.09;100.0
64025;BME280;50266;57.446;26.936;2024-01-27T02:31:13;98835.76;;;-3.09;100.0
64025;BME280;50266;57.446;26.936;2024-01-27T02:32:13;98834.44;;;-3.11;100.0
64025;BME280;50266;57.446;26.936;2024-01-27T02:33:13;98839.17;;;-3.09;100.0
64025;BME280;50266;57.446;26.936;2024-01-27T02:34:13;98840.2;;;-3.12;100.0
64025;BME280;50266;57.446;26.936;2024-01-27T02:35:13;98839.08;;;-3.16;100.0
64025;BME280;50266;57.446;26.936;2024-01-27T02:36:13;98842.05;;;-3.09;100.0
64025;BME280;50266;57.446;26.936;2024-01-27T02:37:13;98835.47;;;-3.12;100.0
64025;BME280;50266;57.446;26.936;2024-01-27T02:38:13;98842.25;;;-3.06;100.0
64025;BME280;50266;57.446;26.936;2024-01-27T02:39:13;98835.33;;;-3.09;100.0
64025;BME280;50266;57.446;26.936;2024-01-27T02:40:13;98834.86;;;-3.1;100.0
64025;BME280;50266;57.446;26.936;2024-01-27T02:41:13;98834.95;;;-3.09;100.0
64025;BME280;50266;57.446;26.936;2024-01-27T02:42:13;98831.4;;;-3.07;100.0
64025;BME280;50266;57.446;26.936;2024-01-27T02:43:13;98830.94;;;-3.06;100.0
64025;BME280;50266;57.446;26.936;2024-01-27T02:44:13;98837.13;;;-3.02;100.0
64025;BME280;50266;57.446;26.936;2024-01-27T02:45:13;98831.0;;;-3.02;100.0
64025;BME280;50266;57.446;26.936;2024-01-27T02:46:13;98830.81;;;-3.0;100.0
64025;BME280;50266;57.446;26.936;2024-01-27T02:47:13;98832.77;;;-3.03;100.0
64025;BME280;50266;57.446;26.936;2024-01-27T02:48:13;98836.41;;;-3.01;100.0
64025;BME280;50266;57.446;26.936;2024-01-27T02:49:13;98836.84;;;-2.99;100.0
64025;BME280;50266;57.446;26.936;2024-01-27T02:50:13;98835.27;;;-2.96;100.0
64025;BME280;50266;57.446;26.936;2024-01-27T02:51:13;98836.88;;;-3.0;100.0
64025;BME280;50266;57.446;26.936;2024-01-27T02:52:14;98834.98;;;-2.98;100.0
64025;BME280;50266;57.446;26.936;2024-01-27T02:53:14;98838.44;;;-3.0;100.0
64025;BME280;50266;57.446;26.936;2024-01-27T02:54:14;98838.58;;;-2.99;100.0
64025;BME280;50266;57.446;26.936;2024-01-27T02:55:14;98843.61;;;-3.03;100.0
64025;BME280;50266;57.446;26.936;2024-01-27T02:56:17;98840.5;;;-3.1;100.0
64025;BME280;50266;57.446;26.936;2024-01-27T02:57:14;98842.59;;;-3.07;100.0
64025;BME280;50266;57.446;26.936;2024-01-27T02:58:14;98845.81;;;-3.08;100.0
64025;BME280;50266;57.446;26.936;2024-01-27T02:59:14;98847.77;;;-3.0;100.0
64025;BME280;50266;57.446;26.936;2024-01-27T03:00:15;98847.61;;;-2.99;100.0
64025;BME280;50266;57.446;26.936;2024-01-27T03:01:14;98845.44;;;-2.98;100.0
64025;BME280;50266;57.446;26.936;2024-01-27T03:02:15;98847.8;;;-2.97;100.0
64025;BME280;50266;57.446;26.936;2024-01-27T03:03:14;98843.53;;;-2.98;100.0
64025;BME280;50266;57.446;26.936;2024-01-27T03:04:14;98845.8;;;-3.0;100.0
64025;BME280;50266;57.446;26.936;2024-01-27T03:05:15;98842.06;;;-3.0;100.0
64025;BME280;50266;57.446;26.936;2024-01-27T03:06:15;98843.09;;;-2.95;100.0
64025;BME280;50266;57.446;26.936;2024-01-27T03:07:15;98843.27;;;-2.93;100.0
64025;BME280;50266;57.446;26.936;2024-01-27T03:08:15;98839.51;;;-2.94;100.0
64025;BME280;50266;57.446;26.936;2024-01-27T03:09:15;98847.97;;;-2.92;100.0
64025;BME280;50266;57.446;26.936;2024-01-27T03:10:15;98844.66;;;-2.92;100.0
64025;BME280;50266;57.446;26.936;2024-01-27T03:11:15;98845.75;;;-2.92;100.0
64025;BME280;50266;57.446;26.936;2024-01-27T03:12:15;98852.12;;;-2.94;100.0
64025;BME280;50266;57.446;26.936;2024-01-27T03:13:15;98848.77;;;-2.94;100.0
64025;BME280;50266;57.446;26.936;2024-01-27T03:14:15;98848.8;;;-2.9;100.0
64025;BME280;50266;57.446;26.936;2024-01-27T03:15:15;98851.51;;;-2.91;100.0
64025;BME280;50266;57.446;26.936;2024-01-27T03:16:15;98849.43;;;-2.86;100.0
64025;BME280;50266;57.446;26.936;2024-01-27T03:17:15;98849.03;;;-2.85;100.0
64025;BME280;50266;57.446;26.936;2024-01-27T03:18:15;98852.63;;;-2.87;100.0
64025;BME280;50266;57.446;26.936;2024-01-27T03:19:15;98847.5;;;-2.85;100.0
64025;BME280;50266;57.446;26.936;2024-01-27T03:20:15;98850.66;;;-2.85;100.0
64025;BME280;50266;57.446;26.936;2024-01-27T03:21:15;98848.52;;;-2.84;100.0
64025;BME280;50266;57.446;26.936;2024-01-27T03:22:15;98846.14;;;-2.85;100.0
64025;BME280;50266;57.446;26.936;2024-01-27T03:23:15;98849.47;;;-2.83;100.0
64025;BME280;50266;57.446;26.936;2024-01-27T03:24:15;98850.64;;;-2.82;100.0
64025;BME280;50266;57.446;26.936;2024-01-27T03:25:15;98855.63;;;-2.8;100.0
64025;BME280;50266;57.446;26.936;2024-01-27T03:26:15;98856.31;;;-2.79;100.0
64025;BME280;50266;57.446;26.936;2024-01-27T03:27:15;98858.79;;;-2.78;100.0
64025;BME280;50266;57.446;26.936;2024-01-27T03:28:15;98861.95;;;-2.74;100.0
64025;BME280;50266;57.446;26.936;2024-01-27T03:29:15;98866.82;;;-2.81;100.0
64025;BME280;50266;57.446;26.936;2024-01-27T03:30:15;98864.99;;;-2.77;100.0
64025;BME280;50266;57.446;26.936;2024-01-27T03:31:15;98864.06;;;-2.77;100.0
64025;BME280;50266;57.446;26.936;2024-01-27T03:32:15;98863.69;;;-2.77;100.0
64025;BME280;50266;57.446;26.936;2024-01-27T03:33:15;98870.81;;;-2.73;100.0
64025;BME280;50266;57.446;26.936;2024-01-27T03:34:15;98863.88;;;-2.71;100.0
64025;BME280;50266;57.446;26.936;2024-01-27T03:35:15;98865.64;;;-2.69;100.0
64025;BME280;50266;57.446;26.936;2024-01-27T03:36:15;98873.67;;;-2.72;100.0
64025;BME280;50266;57.446;26.936;2024-01-27T03:37:15;98871.45;;;-2.75;100.0
64025;BME280;50266;57.446;26.936;2024-01-27T03:38:15;98874.69;;;-2.75;100.0
64025;BME280;50266;57.446;26.936;2024-01-27T03:39:15;98871.05;;;-2.72;100.0
64025;BME280;50266;57.446;26.936;2024-01-27T03:40:15;98879.31;;;-2.78;100.0
64025;BME280;50266;57.446;26.936;2024-01-27T03:41:15;98881.4;;;-2.74;100.0
64025;BME280;50266;57.446;26.936;2024-01-27T03:42:17;98880.55;;;-2.75;100.0
64025;BME280;50266;57.446;26.936;2024-01-27T03:43:16;98881.08;;;-2.74;100.0
64025;BME280;50266;57.446;26.936;2024-01-27T03:44:15;98885.73;;;-2.72;100.0
64025;BME280;50266;57.446;26.936;2024-01-27T03:45:15;98883.62;;;-2.69;100.0
64025;BME280;50266;57.446;26.936;2024-01-27T03:46:16;98880.27;;;-2.72;100.0
64025;BME280;50266;57.446;26.936;2024-01-27T03:47:15;98880.0;;;-2.74;100.0
64025;BME280;50266;57.446;26.936;2024-01-27T03:48:15;98886.13;;;-2.7;100.0
64025;BME280;50266;57.446;26.936;2024-01-27T03:49:15;98886.68;;;-2.7;100.0
64025;BME280;50266;57.446;26.936;2024-01-27T03:50:15;98889.41;;;-2.71;100.0
64025;BME280;50266;57.446;26.936;2024-01-27T03:51:16;98893.06;;;-2.67;100.0
64025;BME280;50266;57.446;26.936;2024-01-27T03:52:16;98895.41;;;-2.67;100.0
64025;BME280;50266;57.446;26.936;2024-01-27T03:53:16;98892.5;;;-2.66;100.0
64025;BME280;50266;57.446;26.936;2024-01-27T03:54:16;98893.45;;;-2.67;100.0
64025;BME280;50266;57.446;26.936;2024-01-27T03:55:16;98895.84;;;-2.65;100.0
64025;BME280;50266;57.446;26.936;2024-01-27T03:56:16;98891.44;;;-2.64;100.0
64025;BME280;50266;57.446;26.936;2024-01-27T03:57:16;98894.02;;;-2.68;100.0
64025;BME280;50266;57.446;26.936;2024-01-27T03:58:16;98897.92;;;-2.69;100.0
64025;BME280;50266;57.446;26.936;2024-01-27T03:59:16;98895.62;;;-2.7;100.0
64025;BME280;50266;57.446;26.936;2024-01-27T04:00:16;98898.75;;;-2.67;100.0
64025;BME280;50266;57.446;26.936;2024-01-27T04:01:16;98902.62;;;-2.65;100.0
64025;BME280;50266;57.446;26.936;2024-01-27T04:02:16;98900.52;;;-2.69;100.0
64025;BME280;50266;57.446;26.936;2024-01-27T04:03:16;98906.07;;;-2.67;100.0
64025;BME280;50266;57.446;26.936;2024-01-27T04:04:16;98907.38;;;-2.65;100.0
64025;BME280;50266;57.446;26.936;2024-01-27T04:05:16;98911.22;;;-2.62;100.0
64025;BME280;50266;57.446;26.936;2024-01-27T04:06:16;98910.17;;;-2.66;100.0
64025;BME280;50266;57.446;26.936;2024-01-27T04:07:16;98913.37;;;-2.69;100.0
64025;BME280;50266;57.446;26.936;2024-01-27T04:08:16;98913.27;;;-2.69;100.0
64025;BME280;50266;57.446;26.936;2024-01-27T04:09:16;98915.88;;;-2.67;100.0
64025;BME280;50266;57.446;26.936;2024-01-27T04:10:17;98918.84;;;-2.66;100.0
64025;BME280;50266;57.446;26.936;2024-01-27T04:11:20;98914.64;;;-2.67;100.0
64025;BME280;50266;57.446;26.936;2024-01-27T04:12:16;98915.35;;;-2.67;100.0
64025;BME280;50266;57.446;26.936;2024-01-27T04:13:16;98916.41;;;-2.68;100.0
64025;BME280;50266;57.446;26.936;2024-01-27T04:14:16;98911.73;;;-2.71;100.0
64025;BME280;50266;57.446;26.936;2024-01-27T04:15:16;98912.12;;;-2.66;100.0
64025;BME280;50266;57.446;26.936;2024-01-27T04:16:16;98916.42;;;-2.64;100.0
64025;BME280;50266;57.446;26.936;2024-01-27T04:17:16;98916.99;;;-2.61;100.0
64025;BME280;50266;57.446;26.936;2024-01-27T04:18:16;98919.48;;;-2.66;100.0
64025;BME280;50266;57.446;26.936;2024-01-27T04:19:16;98917.08;;;-2.64;100.0
64025;BME280;50266;57.446;26.936;2024-01-27T04:20:16;98915.84;;;-2.63;100.0
64025;BME280;50266;57.446;26.936;2024-01-27T04:21:16;98918.87;;;-2.6;100.0
64025;BME280;50266;57.446;26.936;2024-01-27T04:22:16;98919.25;;;-2.6;100.0
64025;BME280;50266;57.446;26.936;2024-01-27T04:23:16;98919.32;;;-2.58;100.0
64025;BME280;50266;57.446;26.936;2024-01-27T04:24:16;98915.7;;;-2.61;100.0
64025;BME280;50266;57.446;26.936;2024-01-27T04:25:16;98919.56;;;-2.62;100.0
64025;BME280;50266;57.446;26.936;2024-01-27T04:26:16;98916.14;;;-2.61;100.0
64025;BME280;50266;57.446;26.936;2024-01-27T04:27:16;98921.81;;;-2.6;100.0
64025;BME280;50266;57.446;26.936;2024-01-27T04:28:17;98920.72;;;-2.63;100.0
64025;BME280;50266;57.446;26.936;2024-01-27T04:29:16;98919.14;;;-2.57;100.0
64025;BME280;50266;57.446;26.936;2024-01-27T04:30:16;98922.11;;;-2.57;100.0
64025;BME280;50266;57.446;26.936;2024-01-27T04:31:16;98925.41;;;-2.56;100.0
64025;BME280;50266;57.446;26.936;2024-01-27T04:32:16;98923.38;;;-2.6;100.0
64025;BME280;50266;57.446;26.936;2024-01-27T04:33:16;98922.69;;;-2.56;100.0
64025;BME280;50266;57.446;26.936;2024-01-27T04:34:17;98928.72;;;-2.61;100.0
64025;BME280;50266;57.446;26.936;2024-01-27T04:35:17;98923.48;;;-2.63;100.0
64025;BME280;50266;57.446;26.936;2024-01-27T04:36:26;98926.27;;;-2.56;100.0
64025;BME280;50266;57.446;26.936;2024-01-27T04:37:18;98921.52;;;-2.52;100.0
64025;BME280;50266;57.446;26.936;2024-01-27T04:38:18;98921.59;;;-2.55;100.0
64025;BME280;50266;57.446;26.936;2024-01-27T04:39:18;98920.77;;;-2.54;100.0
64025;BME280;50266;57.446;26.936;2024-01-27T04:40:18;98922.41;;;-2.53;100.0
64025;BME280;50266;57.446;26.936;2024-01-27T04:41:18;98921.17;;;-2.53;100.0
64025;BME280;50266;57.446;26.936;2024-01-27T04:42:18;98917.42;;;-2.55;100.0
64025;BME280;50266;57.446;26.936;2024-01-27T04:43:18;98920.48;;;-2.54;100.0
64025;BME280;50266;57.446;26.936;2024-01-27T04:44:18;98926.62;;;-2.55;100.0
64025;BME280;50266;57.446;26.936;2024-01-27T04:45:18;98925.3;;;-2.56;100.0
64025;BME280;50266;57.446;26.936;2024-01-27T04:46:18;98932.27;;;-2.55;100.0
64025;BME280;50266;57.446;26.936;2024-01-27T04:47:18;98931.15;;;-2.54;100.0
64025;BME280;50266;57.446;26.936;2024-01-27T04:48:18;98930.14;;;-2.52;100.0
64025;BME280;50266;57.446;26.936;2024-01-27T04:49:18;98937.75;;;-2.51;100.0
64025;BME280;50266;57.446;26.936;2024-01-27T04:50:19;98936.47;;;-2.51;100.0
64025;BME280;50266;57.446;26.936;2024-01-27T04:51:18;98937.69;;;-2.5;100.0
64025;BME280;50266;57.446;26.936;2024-01-27T04:52:18;98943.3;;;-2.51;100.0
64025;BME280;50266;57.446;26.936;2024-01-27T04:53:18;98946.39;;;-2.49;100.0
64025;BME280;50266;57.446;26.936;2024-01-27T04:54:18;98944.77;;;-2.49;100.0
64025;BME280;50266;57.446;26.936;2024-01-27T04:55:18;98942.84;;;-2.51;100.0
64025;BME280;50266;57.446;26.936;2024-01-27T04:56:18;98944.25;;;-2.51;100.0
64025;BME280;50266;57.446;26.936;2024-01-27T04:57:18;98948.59;;;-2.5;100.0
64025;BME280;50266;57.446;26.936;2024-01-27T04:58:18;98949.27;;;-2.49;100.0
64025;BME280;50266;57.446;26.936;2024-01-27T04:59:19;98946.66;;;-2.51;100.0
64025;BME280;50266;57.446;26.936;2024-01-27T05:00:20;98950.46;;;-2.49;100.0
64025;BME280;50266;57.446;26.936;2024-01-27T05:01:19;98949.95;;;-2.45;100.0
64025;BME280;50266;57.446;26.936;2024-01-27T05:02:19;98954.39;;;-2.45;100.0
64025;BME280;50266;57.446;26.936;2024-01-27T05:03:19;98952.17;;;-2.45;100.0
64025;BME280;50266;57.446;26.936;2024-01-27T05:04:19;98957.0;;;-2.43;100.0
64025;BME280;50266;57.446;26.936;2024-01-27T05:05:19;98955.5;;;-2.43;100.0
64025;BME280;50266;57.446;26.936;2024-01-27T05:06:19;98958.95;;;-2.43;100.0
64025;BME280;50266;57.446;26.936;2024-01-27T05:07:19;98957.88;;;-2.43;100.0
64025;BME280;50266;57.446;26.936;2024-01-27T05:08:19;98957.72;;;-2.43;100.0
64025;BME280;50266;57.446;26.936;2024-01-27T05:09:19;98959.74;;;-2.44;100.0
64025;BME280;50266;57.446;26.936;2024-01-27T05:10:19;98960.16;;;-2.43;100.0
64025;BME280;50266;57.446;26.936;2024-01-27T05:11:25;98967.77;;;-2.39;100.0
64025;BME280;50266;57.446;26.936;2024-01-27T05:12:21;98969.98;;;-2.41;100.0
64025;BME280;50266;57.446;26.936;2024-01-27T05:13:21;98969.95;;;-2.4;100.0
64025;BME280;50266;57.446;26.936;2024-01-27T05:14:21;98974.42;;;-2.41;100.0